sensor_id;sensor_type;location;lat;lon;timestamp;P1;durP1;ratioP1;P2;durP2;ratioP2
6348;SDS011;3207;42.648;23.406;2024-03-17T00:01:00;18.10;;;12.45;;
6348;SDS011;3207;42.648;23.406;2024-03-17T00:03:28;21.77;;;13.68;;
6348;SDS011;3207;42.648;23.406;2024-03-17T00:05:57;20.67;;;14.07;;
6348;SDS011;3207;42.648;23.406;2024-03-17T00:08:24;17.70;;;12.88;;
6348;SDS011;3207;42.648;23.406;2024-03-17T00:10:51;21.13;;;13.98;;
6348;SDS011;3207;42.648;23.406;2024-03-17T00:13:17;20.80;;;14.50;;
6348;SDS011;3207;42.648;23.406;2024-03-17T00:15:44;18.75;;;14.20;;
6348;SDS011;3207;42.648;23.406;2024-03-17T00:18:10;14.80;;;12.75;;
6348;SDS011;3207;42.648;23.406;2024-03-17T00:20:37;18.08;;;13.57;;
6348;SDS011;3207;42.648;23.406;2024-03-17T00:23:05;22.02;;;14.60;;
6348;SDS011;3207;42.648;23.406;2024-03-17T00:25:34;18.33;;;13.13;;
6348;SDS011;3207;42.648;23.406;2024-03-17T00:28:00;19.83;;;14.93;;
6348;SDS011;3207;42.648;23.406;2024-03-17T00:30:28;17.27;;;12.90;;
6348;SDS011;3207;42.648;23.406;2024-03-17T00:32:54;18.02;;;14.00;;
6348;SDS011;3207;42.648;23.406;2024-03-17T00:35:23;24.08;;;14.68;;
6348;SDS011;3207;42.648;23.406;2024-03-17T00:37:50;18.08;;;13.70;;
6348;SDS011;3207;42.648;23.406;2024-03-17T00:40:18;17.63;;;13.68;;
6348;SDS011;3207;42.648;23.406;2024-03-17T00:42:45;21.35;;;14.10;;
6348;SDS011;3207;42.648;23.406;2024-03-17T00:45:11;16.73;;;12.43;;
6348;SDS011;3207;42.648;23.406;2024-03-17T00:47:38;18.20;;;12.55;;
6348;SDS011;3207;42.648;23.406;2024-03-17T00:50:05;23.48;;;14.18;;
6348;SDS011;3207;42.648;23.406;2024-03-17T00:52:33;18.13;;;13.75;;
6348;SDS011;3207;42.648;23.406;2024-03-17T00:55:00;20.80;;;14.63;;
6348;SDS011;3207;42.648;23.406;2024-03-17T00:57:28;18.88;;;13.57;;
6348;SDS011;3207;42.648;23.406;2024-03-17T00:59:54;19.83;;;14.68;;
6348;SDS011;3207;42.648;23.406;2024-03-17T01:02:21;14.82;;;10.98;;
6348;SDS011;3207;42.648;23.406;2024-03-17T01:04:47;17.17;;;11.50;;
6348;SDS011;3207;42.648;23.406;2024-03-17T01:07:14;15.45;;;11.95;;
6348;SDS011;3207;42.648;23.406;2024-03-17T01:09:40;14.65;;;11.00;;
6348;SDS011;3207;42.648;23.406;2024-03-17T01:12:07;15.98;;;10.80;;
6348;SDS011;3207;42.648;23.406;2024-03-17T01:14:34;13.25;;;10.68;;
6348;SDS011;3207;42.648;23.406;2024-03-17T01:17:01;13.38;;;9.63;;
6348;SDS011;3207;42.648;23.406;2024-03-17T01:19:30;14.30;;;10.52;;
6348;SDS011;3207;42.648;23.406;2024-03-17T01:21:57;13.13;;;9.65;;
6348;SDS011;3207;42.648;23.406;2024-03-17T01:24:27;12.68;;;10.00;;
6348;SDS011;3207;42.648;23.406;2024-03-17T01:26:56;11.98;;;8.30;;
6348;SDS011;3207;42.648;23.406;2024-03-17T01:29:23;12.45;;;9.20;;
6348;SDS011;3207;42.648;23.406;2024-03-17T01:31:51;9.98;;;7.68;;
6348;SDS011;3207;42.648;23.406;2024-03-17T01:34:18;11.98;;;8.20;;
6348;SDS011;3207;42.648;23.406;2024-03-17T01:36:45;11.52;;;9.68;;
6348;SDS011;3207;42.648;23.406;2024-03-17T01:39:10;12.75;;;9.70;;
6348;SDS011;3207;42.648;23.406;2024-03-17T01:41:38;15.15;;;10.32;;
6348;SDS011;3207;42.648;23.406;2024-03-17T01:44:04;16.40;;;12.13;;
6348;SDS011;3207;42.648;23.406;2024-03-17T01:46:32;15.05;;;12.45;;
6348;SDS011;3207;42.648;23.406;2024-03-17T01:49:00;21.30;;;12.30;;
6348;SDS011;3207;42.648;23.406;2024-03-17T01:51:29;15.68;;;11.93;;
6348;SDS011;3207;42.648;23.406;2024-03-17T01:53:55;21.95;;;13.40;;
6348;SDS011;3207;42.648;23.406;2024-03-17T01:56:22;15.73;;;12.35;;
6348;SDS011;3207;42.648;23.406;2024-03-17T01:58:49;18.67;;;12.68;;
6348;SDS011;3207;42.648;23.406;2024-03-17T02:01:16;13.57;;;10.85;;
6348;SDS011;3207;42.648;23.406;2024-03-17T02:03:42;15.60;;;11.93;;
6348;SDS011;3207;42.648;23.406;2024-03-17T02:06:11;13.80;;;10.02;;
6348;SDS011;3207;42.648;23.406;2024-03-17T02:08:47;16.20;;;10.82;;
6348;SDS011;3207;42.648;23.406;2024-03-17T02:11:24;17.55;;;12.93;;
6348;SDS011;3207;42.648;23.406;2024-03-17T02:13:51;21.48;;;13.50;;
6348;SDS011;3207;42.648;23.406;2024-03-17T02:16:19;22.85;;;13.57;;
6348;SDS011;3207;42.648;23.406;2024-03-17T02:18:45;20.98;;;14.35;;
6348;SDS011;3207;42.648;23.406;2024-03-17T02:21:14;24.08;;;15.27;;
6348;SDS011;3207;42.648;23.406;2024-03-17T02:23:42;18.55;;;13.98;;
6348;SDS011;3207;42.648;23.406;2024-03-17T02:26:09;21.48;;;15.15;;
6348;SDS011;3207;42.648;23.406;2024-03-17T02:28:38;22.30;;;15.18;;
6348;SDS011;3207;42.648;23.406;2024-03-17T02:31:06;16.40;;;12.98;;
6348;SDS011;3207;42.648;23.406;2024-03-17T02:33:33;18.77;;;12.15;;
6348;SDS011;3207;42.648;23.406;2024-03-17T02:36:00;18.58;;;13.90;;
6348;SDS011;3207;42.648;23.406;2024-03-17T02:38:26;19.17;;;12.23;;
6348;SDS011;3207;42.648;23.406;2024-03-17T02:41:12;17.73;;;13.07;;
6348;SDS011;3207;42.648;23.406;2024-03-17T02:43:39;15.85;;;12.10;;
6348;SDS011;3207;42.648;23.406;2024-03-17T02:46:05;17.48;;;12.20;;
6348;SDS011;3207;42.648;23.406;2024-03-17T02:48:33;15.05;;;10.95;;
6348;SDS011;3207;42.648;23.406;2024-03-17T02:51:02;17.60;;;13.02;;
6348;SDS011;3207;42.648;23.406;2024-03-17T02:53:29;21.40;;;13.93;;
6348;SDS011;3207;42.648;23.406;2024-03-17T02:55:56;18.38;;;13.35;;
6348;SDS011;3207;42.648;23.406;2024-03-17T02:58:24;18.90;;;13.93;;
6348;SDS011;3207;42.648;23.406;2024-03-17T03:00:51;18.83;;;13.35;;
6348;SDS011;3207;42.648;23.406;2024-03-17T03:03:18;22.50;;;14.07;;
6348;SDS011;3207;42.648;23.406;2024-03-17T03:05:45;17.77;;;13.07;;
6348;SDS011;3207;42.648;23.406;2024-03-17T03:08:14;25.27;;;16.13;;
6348;SDS011;3207;42.648;23.406;2024-03-17T03:10:43;20.00;;;13.75;;
6348;SDS011;3207;42.648;23.406;2024-03-17T03:13:10;21.77;;;14.82;;
6348;SDS011;3207;42.648;23.406;2024-03-17T03:15:39;16.02;;;11.65;;
6348;SDS011;3207;42.648;23.406;2024-03-17T03:18:06;15.95;;;11.90;;
6348;SDS011;3207;42.648;23.406;2024-03-17T03:20:33;16.23;;;11.55;;
6348;SDS011;3207;42.648;23.406;2024-03-17T03:23:00;11.93;;;10.38;;
6348;SDS011;3207;42.648;23.406;2024-03-17T03:25:27;15.48;;;10.27;;
6348;SDS011;3207;42.648;23.406;2024-03-17T03:27:54;15.35;;;11.63;;
6348;SDS011;3207;42.648;23.406;2024-03-17T03:30:23;13.85;;;11.10;;
6348;SDS011;3207;42.648;23.406;2024-03-17T03:32:51;14.55;;;11.20;;
6348;SDS011;3207;42.648;23.406;2024-03-17T03:35:17;14.70;;;10.95;;
6348;SDS011;3207;42.648;23.406;2024-03-17T03:37:44;15.70;;;10.50;;
6348;SDS011;3207;42.648;23.406;2024-03-17T03:40:11;14.63;;;10.75;;
6348;SDS011;3207;42.648;23.406;2024-03-17T03:42:41;15.00;;;11.32;;
6348;SDS011;3207;42.648;23.406;2024-03-17T03:45:09;15.82;;;11.30;;
6348;SDS011;3207;42.648;23.406;2024-03-17T03:47:37;16.02;;;11.38;;
6348;SDS011;3207;42.648;23.406;2024-03-17T03:50:07;14.63;;;10.02;;
6348;SDS011;3207;42.648;23.406;2024-03-17T03:52:35;15.63;;;10.25;;
6348;SDS011;3207;42.648;23.406;2024-03-17T03:55:02;14.32;;;9.75;;
6348;SDS011;3207;42.648;23.406;2024-03-17T03:57:32;12.70;;;9.80;;
6348;SDS011;3207;42.648;23.406;2024-03-17T03:59:59;16.25;;;9.80;;
6348;SDS011;3207;42.648;23.406;2024-03-17T04:02:26;13.15;;;9.57;;
6348;SDS011;3207;42.648;23.406;2024-03-17T04:04:56;13.55;;;10.63;;
6348;SDS011;3207;42.648;23.406;2024-03-17T04:07:25;12.95;;;9.90;;
6348;SDS011;3207;42.648;23.406;2024-03-17T04:09:52;14.73;;;10.43;;
6348;SDS011;3207;42.648;23.406;2024-03-17T04:12:20;14.57;;;10.10;;
6348;SDS011;3207;42.648;23.406;2024-03-17T04:14:47;14.77;;;10.25;;
6348;SDS011;3207;42.648;23.406;2024-03-17T04:17:17;15.80;;;10.07;;
6348;SDS011;3207;42.648;23.406;2024-03-17T04:19:46;13.73;;;10.27;;
6348;SDS011;3207;42.648;23.406;2024-03-17T04:22:14;15.70;;;11.52;;
6348;SDS011;3207;42.648;23.406;2024-03-17T04:24:43;14.82;;;10.60;;
6348;SDS011;3207;42.648;23.406;2024-03-17T04:27:10;14.65;;;9.77;;
6348;SDS011;3207;42.648;23.406;2024-03-17T04:29:37;12.77;;;10.18;;
6348;SDS011;3207;42.648;23.406;2024-03-17T04:32:04;12.50;;;10.02;;
6348;SDS011;3207;42.648;23.406;2024-03-17T04:34:32;15.43;;;9.85;;
6348;SDS011;3207;42.648;23.406;2024-03-17T04:36:59;15.60;;;11.35;;
6348;SDS011;3207;42.648;23.406;2024-03-17T04:39:26;14.48;;;10.88;;
6348;SDS011;3207;42.648;23.406;2024-03-17T04:41:54;17.05;;;11.75;;
6348;SDS011;3207;42.648;23.406;2024-03-17T04:44:21;16.08;;;11.00;;
6348;SDS011;3207;42.648;23.406;2024-03-17T04:46:48;13.52;;;10.05;;
6348;SDS011;3207;42.648;23.406;2024-03-17T04:49:15;14.00;;;10.63;;
6348;SDS011;3207;42.648;23.406;2024-03-17T04:51:42;16.77;;;12.43;;
6348;SDS011;3207;42.648;23.406;2024-03-17T04:54:09;15.50;;;11.73;;
6348;SDS011;3207;42.648;23.406;2024-03-17T04:56:37;15.10;;;12.05;;
6348;SDS011;3207;42.648;23.406;2024-03-17T04:59:05;20.15;;;11.25;;
6348;SDS011;3207;42.648;23.406;2024-03-17T05:01:31;17.52;;;12.20;;
6348;SDS011;3207;42.648;23.406;2024-03-17T05:04:01;13.82;;;11.90;;
6348;SDS011;3207;42.648;23.406;2024-03-17T05:06:29;15.20;;;11.52;;
6348;SDS011;3207;42.648;23.406;2024-03-17T05:08:56;14.05;;;12.45;;
6348;SDS011;3207;42.648;23.406;2024-03-17T05:11:23;18.33;;;13.88;;
6348;SDS011;3207;42.648;23.406;2024-03-17T05:13:50;21.42;;;13.38;;
6348;SDS011;3207;42.648;23.406;2024-03-17T05:16:18;22.75;;;14.20;;
6348;SDS011;3207;42.648;23.406;2024-03-17T05:18:48;22.05;;;13.65;;
6348;SDS011;3207;42.648;23.406;2024-03-17T05:21:15;20.83;;;14.10;;
6348;SDS011;3207;42.648;23.406;2024-03-17T05:23:42;21.83;;;13.95;;
6348;SDS011;3207;42.648;23.406;2024-03-17T05:26:09;19.90;;;14.70;;
6348;SDS011;3207;42.648;23.406;2024-03-17T05:28:36;24.97;;;14.57;;
6348;SDS011;3207;42.648;23.406;2024-03-17T05:31:03;19.95;;;14.27;;
6348;SDS011;3207;42.648;23.406;2024-03-17T05:33:31;24.42;;;15.13;;
6348;SDS011;3207;42.648;23.406;2024-03-17T05:35:58;24.00;;;16.25;;
6348;SDS011;3207;42.648;23.406;2024-03-17T05:38:27;16.13;;;13.80;;
6348;SDS011;3207;42.648;23.406;2024-03-17T05:40:55;24.27;;;14.05;;
6348;SDS011;3207;42.648;23.406;2024-03-17T05:43:25;24.83;;;15.60;;
6348;SDS011;3207;42.648;23.406;2024-03-17T05:45:53;20.33;;;15.10;;
6348;SDS011;3207;42.648;23.406;2024-03-17T05:48:20;16.58;;;12.80;;
6348;SDS011;3207;42.648;23.406;2024-03-17T05:50:49;17.92;;;13.30;;
6348;SDS011;3207;42.648;23.406;2024-03-17T05:53:16;17.15;;;13.00;;
6348;SDS011;3207;42.648;23.406;2024-03-17T05:55:43;15.38;;;11.95;;
6348;SDS011;3207;42.648;23.406;2024-03-17T05:58:10;18.00;;;13.27;;
6348;SDS011;3207;42.648;23.406;2024-03-17T06:00:38;14.50;;;12.02;;
6348;SDS011;3207;42.648;23.406;2024-03-17T06:03:05;17.23;;;12.82;;
6348;SDS011;3207;42.648;23.406;2024-03-17T06:05:33;17.75;;;13.95;;
6348;SDS011;3207;42.648;23.406;2024-03-17T06:08:02;20.85;;;15.13;;
6348;SDS011;3207;42.648;23.406;2024-03-17T06:10:30;20.20;;;15.48;;
6348;SDS011;3207;42.648;23.406;2024-03-17T06:12:58;20.15;;;17.48;;
6348;SDS011;3207;42.648;23.406;2024-03-17T06:15:25;22.13;;;18.50;;
6348;SDS011;3207;42.648;23.406;2024-03-17T06:17:53;25.38;;;17.58;;
6348;SDS011;3207;42.648;23.406;2024-03-17T06:20:21;24.98;;;16.23;;
6348;SDS011;3207;42.648;23.406;2024-03-17T06:22:49;21.10;;;16.67;;
6348;SDS011;3207;42.648;23.406;2024-03-17T06:25:17;24.58;;;17.33;;
6348;SDS011;3207;42.648;23.406;2024-03-17T06:27:44;26.52;;;21.45;;
6348;SDS011;3207;42.648;23.406;2024-03-17T06:30:12;22.90;;;17.95;;
6348;SDS011;3207;42.648;23.406;2024-03-17T06:32:40;24.83;;;17.83;;
6348;SDS011;3207;42.648;23.406;2024-03-17T06:35:07;36.78;;;30.65;;
6348;SDS011;3207;42.648;23.406;2024-03-17T06:37:35;22.42;;;18.70;;
6348;SDS011;3207;42.648;23.406;2024-03-17T06:40:01;20.02;;;16.67;;
6348;SDS011;3207;42.648;23.406;2024-03-17T06:42:30;17.80;;;15.90;;
6348;SDS011;3207;42.648;23.406;2024-03-17T06:44:57;18.65;;;16.58;;
6348;SDS011;3207;42.648;23.406;2024-03-17T06:47:25;19.75;;;17.67;;
6348;SDS011;3207;42.648;23.406;2024-03-17T06:49:51;17.80;;;15.82;;
6348;SDS011;3207;42.648;23.406;2024-03-17T06:52:18;24.05;;;21.58;;
6348;SDS011;3207;42.648;23.406;2024-03-17T06:54:46;21.05;;;18.85;;
6348;SDS011;3207;42.648;23.406;2024-03-17T06:57:16;21.60;;;19.50;;
6348;SDS011;3207;42.648;23.406;2024-03-17T06:59:44;24.27;;;22.08;;
6348;SDS011;3207;42.648;23.406;2024-03-17T07:02:13;22.33;;;20.15;;
6348;SDS011;3207;42.648;23.406;2024-03-17T07:04:42;21.63;;;19.48;;
6348;SDS011;3207;42.648;23.406;2024-03-17T07:07:09;23.63;;;21.52;;
6348;SDS011;3207;42.648;23.406;2024-03-17T07:09:37;26.85;;;24.13;;
6348;SDS011;3207;42.648;23.406;2024-03-17T07:12:05;34.70;;;31.23;;
6348;SDS011;3207;42.648;23.406;2024-03-17T07:14:32;30.77;;;27.77;;
6348;SDS011;3207;42.648;23.406;2024-03-17T07:17:01;26.90;;;24.25;;
6348;SDS011;3207;42.648;23.406;2024-03-17T07:19:28;21.85;;;19.77;;
6348;SDS011;3207;42.648;23.406;2024-03-17T07:21:56;21.65;;;19.75;;
6348;SDS011;3207;42.648;23.406;2024-03-17T07:24:23;20.30;;;18.60;;
6348;SDS011;3207;42.648;23.406;2024-03-17T07:26:50;20.80;;;18.90;;
6348;SDS011;3207;42.648;23.406;2024-03-17T07:29:17;20.48;;;18.48;;
6348;SDS011;3207;42.648;23.406;2024-03-17T07:31:45;22.80;;;20.77;;
6348;SDS011;3207;42.648;23.406;2024-03-17T07:34:13;24.08;;;21.83;;
6348;SDS011;3207;42.648;23.406;2024-03-17T07:36:40;25.15;;;22.75;;
6348;SDS011;3207;42.648;23.406;2024-03-17T07:39:07;21.77;;;19.80;;
6348;SDS011;3207;42.648;23.406;2024-03-17T07:41:34;20.55;;;18.75;;
6348;SDS011;3207;42.648;23.406;2024-03-17T07:44:01;18.67;;;16.98;;
6348;SDS011;3207;42.648;23.406;2024-03-17T07:46:28;19.23;;;17.33;;
6348;SDS011;3207;42.648;23.406;2024-03-17T07:48:55;16.90;;;15.40;;
6348;SDS011;3207;42.648;23.406;2024-03-17T07:51:23;18.52;;;16.83;;
6348;SDS011;3207;42.648;23.406;2024-03-17T07:53:50;20.17;;;18.23;;
6348;SDS011;3207;42.648;23.406;2024-03-17T07:56:18;16.63;;;14.88;;
6348;SDS011;3207;42.648;23.406;2024-03-17T07:58:45;18.33;;;16.70;;
6348;SDS011;3207;42.648;23.406;2024-03-17T08:01:15;15.07;;;13.57;;
6348;SDS011;3207;42.648;23.406;2024-03-17T08:03:44;17.15;;;14.88;;
6348;SDS011;3207;42.648;23.406;2024-03-17T08:06:12;16.00;;;14.50;;
6348;SDS011;3207;42.648;23.406;2024-03-17T08:08:40;17.02;;;13.68;;
6348;SDS011;3207;42.648;23.406;2024-03-17T08:11:07;16.13;;;11.85;;
6348;SDS011;3207;42.648;23.406;2024-03-17T08:13:34;13.48;;;11.68;;
6348;SDS011;3207;42.648;23.406;2024-03-17T08:16:00;12.27;;;11.02;;
6348;SDS011;3207;42.648;23.406;2024-03-17T08:18:28;12.30;;;11.02;;
6348;SDS011;3207;42.648;23.406;2024-03-17T08:20:55;12.30;;;11.18;;
6348;SDS011;3207;42.648;23.406;2024-03-17T08:23:22;11.25;;;10.07;;
6348;SDS011;3207;42.648;23.406;2024-03-17T08:25:54;13.07;;;11.60;;
6348;SDS011;3207;42.648;23.406;2024-03-17T08:28:21;10.98;;;9.90;;
6348;SDS011;3207;42.648;23.406;2024-03-17T08:30:51;12.40;;;10.25;;
6348;SDS011;3207;42.648;23.406;2024-03-17T08:33:19;11.55;;;10.35;;
6348;SDS011;3207;42.648;23.406;2024-03-17T08:35:54;13.00;;;11.00;;
6348;SDS011;3207;42.648;23.406;2024-03-17T08:38:22;12.93;;;11.65;;
6348;SDS011;3207;42.648;23.406;2024-03-17T08:40:49;11.32;;;10.13;;
6348;SDS011;3207;42.648;23.406;2024-03-17T08:43:17;11.90;;;10.80;;
6348;SDS011;3207;42.648;23.406;2024-03-17T08:45:45;12.57;;;11.30;;
6348;SDS011;3207;42.648;23.406;2024-03-17T08:48:12;13.57;;;12.18;;
6348;SDS011;3207;42.648;23.406;2024-03-17T08:50:39;13.25;;;12.00;;
6348;SDS011;3207;42.648;23.406;2024-03-17T08:53:06;13.50;;;12.20;;
6348;SDS011;3207;42.648;23.406;2024-03-17T08:55:33;13.07;;;11.80;;
6348;SDS011;3207;42.648;23.406;2024-03-17T08:58:00;11.68;;;10.68;;
6348;SDS011;3207;42.648;23.406;2024-03-17T09:00:28;13.70;;;12.38;;
6348;SDS011;3207;42.648;23.406;2024-03-17T09:02:57;12.95;;;11.75;;
6348;SDS011;3207;42.648;23.406;2024-03-17T09:05:24;12.88;;;11.68;;
6348;SDS011;3207;42.648;23.406;2024-03-17T09:07:51;13.40;;;12.05;;
6348;SDS011;3207;42.648;23.406;2024-03-17T09:10:18;13.45;;;11.85;;
6348;SDS011;3207;42.648;23.406;2024-03-17T09:12:45;22.48;;;20.13;;
6348;SDS011;3207;42.648;23.406;2024-03-17T09:15:12;18.23;;;16.42;;
6348;SDS011;3207;42.648;23.406;2024-03-17T09:17:41;12.57;;;11.38;;
6348;SDS011;3207;42.648;23.406;2024-03-17T09:20:09;11.88;;;10.77;;
6348;SDS011;3207;42.648;23.406;2024-03-17T09:22:40;12.13;;;9.18;;
6348;SDS011;3207;42.648;23.406;2024-03-17T09:25:07;11.77;;;10.77;;
6348;SDS011;3207;42.648;23.406;2024-03-17T09:27:34;11.50;;;10.52;;
6348;SDS011;3207;42.648;23.406;2024-03-17T09:30:03;8.52;;;7.82;;
6348;SDS011;3207;42.648;23.406;2024-03-17T09:32:34;8.82;;;8.13;;
6348;SDS011;3207;42.648;23.406;2024-03-17T09:35:03;8.60;;;7.93;;
6348;SDS011;3207;42.648;23.406;2024-03-17T09:37:30;7.88;;;7.28;;
6348;SDS011;3207;42.648;23.406;2024-03-17T09:39:57;7.80;;;7.10;;
6348;SDS011;3207;42.648;23.406;2024-03-17T09:42:25;7.13;;;6.60;;
6348;SDS011;3207;42.648;23.406;2024-03-17T09:44:53;6.43;;;5.97;;
6348;SDS011;3207;42.648;23.406;2024-03-17T09:47:21;5.50;;;5.10;;
6348;SDS011;3207;42.648;23.406;2024-03-17T09:49:50;5.85;;;5.35;;
6348;SDS011;3207;42.648;23.406;2024-03-17T09:52:19;6.93;;;5.70;;
6348;SDS011;3207;42.648;23.406;2024-03-17T09:54:49;6.50;;;5.95;;
6348;SDS011;3207;42.648;23.406;2024-03-17T09:57:22;6.00;;;5.50;;
6348;SDS011;3207;42.648;23.406;2024-03-17T09:59:50;5.60;;;5.10;;
6348;SDS011;3207;42.648;23.406;2024-03-17T10:02:19;5.65;;;5.15;;
6348;SDS011;3207;42.648;23.406;2024-03-17T10:04:46;5.25;;;4.85;;
6348;SDS011;3207;42.648;23.406;2024-03-17T10:07:13;4.32;;;4.03;;
6348;SDS011;3207;42.648;23.406;2024-03-17T10:09:42;4.60;;;4.30;;
6348;SDS011;3207;42.648;23.406;2024-03-17T10:12:26;5.07;;;4.60;;
6348;SDS011;3207;42.648;23.406;2024-03-17T10:14:59;4.85;;;4.45;;
6348;SDS011;3207;42.648;23.406;2024-03-17T10:17:30;6.57;;;4.72;;
6348;SDS011;3207;42.648;23.406;2024-03-17T10:23:00;3.50;;;2.80;;
6348;SDS011;3207;42.648;23.406;2024-03-17T10:25:30;3.80;;;3.60;;
6348;SDS011;3207;42.648;23.406;2024-03-17T10:27:58;3.40;;;3.20;;
6348;SDS011;3207;42.648;23.406;2024-03-17T10:30:26;2.72;;;2.53;;
6348;SDS011;3207;42.648;23.406;2024-03-17T10:32:55;2.90;;;2.70;;
6348;SDS011;3207;42.648;23.406;2024-03-17T10:35:26;2.30;;;2.20;;
6348;SDS011;3207;42.648;23.406;2024-03-17T10:37:55;3.25;;;2.42;;
6348;SDS011;3207;42.648;23.406;2024-03-17T10:40:23;3.13;;;2.55;;
6348;SDS011;3207;42.648;23.406;2024-03-17T10:42:52;2.67;;;2.47;;
6348;SDS011;3207;42.648;23.406;2024-03-17T10:45:20;2.65;;;2.45;;
6348;SDS011;3207;42.648;23.406;2024-03-17T10:47:48;2.50;;;2.40;;
6348;SDS011;3207;42.648;23.406;2024-03-17T10:50:17;3.00;;;2.72;;
6348;SDS011;3207;42.648;23.406;2024-03-17T10:52:46;2.85;;;2.65;;
6348;SDS011;3207;42.648;23.406;2024-03-17T10:55:25;2.67;;;2.47;;
6348;SDS011;3207;42.648;23.406;2024-03-17T10:57:54;2.35;;;2.25;;
6348;SDS011;3207;42.648;23.406;2024-03-17T11:00:23;2.80;;;2.60;;
6348;SDS011;3207;42.648;23.406;2024-03-17T11:02:54;2.85;;;2.70;;
6348;SDS011;3207;42.648;23.406;2024-03-17T11:05:22;3.70;;;3.40;;
6348;SDS011;3207;42.648;23.406;2024-03-17T11:07:51;2.85;;;2.65;;
6348;SDS011;3207;42.648;23.406;2024-03-17T11:10:20;3.25;;;3.05;;
6348;SDS011;3207;42.648;23.406;2024-03-17T11:12:48;3.30;;;2.97;;
6348;SDS011;3207;42.648;23.406;2024-03-17T11:15:36;3.05;;;2.85;;
6348;SDS011;3207;42.648;23.406;2024-03-17T11:21:05;3.28;;;2.80;;
6348;SDS011;3207;42.648;23.406;2024-03-17T11:23:40;6.68;;;3.05;;
6348;SDS011;3207;42.648;23.406;2024-03-17T11:26:07;3.33;;;3.13;;
6348;SDS011;3207;42.648;23.406;2024-03-17T11:28:45;2.97;;;2.80;;
6348;SDS011;3207;42.648;23.406;2024-03-17T11:34:00;3.00;;;2.80;;
6348;SDS011;3207;42.648;23.406;2024-03-17T11:36:35;3.25;;;3.00;;
6348;SDS011;3207;42.648;23.406;2024-03-17T11:39:04;2.72;;;2.50;;
6348;SDS011;3207;42.648;23.406;2024-03-17T11:41:40;2.88;;;2.67;;
6348;SDS011;3207;42.648;23.406;2024-03-17T11:44:14;2.97;;;2.78;;
6348;SDS011;3207;42.648;23.406;2024-03-17T11:46:54;3.15;;;2.95;;
6348;SDS011;3207;42.648;23.406;2024-03-17T11:49:23;3.33;;;2.83;;
6348;SDS011;3207;42.648;23.406;2024-03-17T11:51:52;2.67;;;2.47;;
6348;SDS011;3207;42.648;23.406;2024-03-17T11:54:23;2.90;;;2.70;;
6348;SDS011;3207;42.648;23.406;2024-03-17T11:56:52;3.22;;;2.58;;
6348;SDS011;3207;42.648;23.406;2024-03-17T11:59:20;3.28;;;2.97;;
6348;SDS011;3207;42.648;23.406;2024-03-17T12:01:48;3.60;;;3.30;;
6348;SDS011;3207;42.648;23.406;2024-03-17T12:04:16;3.50;;;3.15;;
6348;SDS011;3207;42.648;23.406;2024-03-17T12:06:45;4.45;;;2.88;;
6348;SDS011;3207;42.648;23.406;2024-03-17T12:09:16;3.28;;;2.85;;
6348;SDS011;3207;42.648;23.406;2024-03-17T12:11:47;3.30;;;3.10;;
6348;SDS011;3207;42.648;23.406;2024-03-17T12:14:15;2.90;;;2.67;;
6348;SDS011;3207;42.648;23.406;2024-03-17T12:16:48;2.72;;;2.53;;
6348;SDS011;3207;42.648;23.406;2024-03-17T12:19:19;2.65;;;2.55;;
6348;SDS011;3207;42.648;23.406;2024-03-17T12:21:47;3.17;;;2.92;;
6348;SDS011;3207;42.648;23.406;2024-03-17T12:24:15;2.85;;;2.65;;
6348;SDS011;3207;42.648;23.406;2024-03-17T12:26:44;3.38;;;3.08;;
6348;SDS011;3207;42.648;23.406;2024-03-17T12:29:23;3.00;;;2.80;;
6348;SDS011;3207;42.648;23.406;2024-03-17T12:31:53;3.58;;;3.10;;
6348;SDS011;3207;42.648;23.406;2024-03-17T12:34:22;2.90;;;2.70;;
6348;SDS011;3207;42.648;23.406;2024-03-17T12:36:51;3.00;;;2.80;;
6348;SDS011;3207;42.648;23.406;2024-03-17T12:39:18;3.00;;;2.78;;
6348;SDS011;3207;42.648;23.406;2024-03-17T12:42:00;3.03;;;2.83;;
6348;SDS011;3207;42.648;23.406;2024-03-17T12:44:27;2.85;;;2.65;;
6348;SDS011;3207;42.648;23.406;2024-03-17T12:46:55;4.00;;;3.60;;
6348;SDS011;3207;42.648;23.406;2024-03-17T12:49:23;2.75;;;2.55;;
6348;SDS011;3207;42.648;23.406;2024-03-17T12:51:51;3.15;;;2.95;;
6348;SDS011;3207;42.648;23.406;2024-03-17T12:54:19;3.28;;;3.08;;
6348;SDS011;3207;42.648;23.406;2024-03-17T12:56:49;3.17;;;2.97;;
6348;SDS011;3207;42.648;23.406;2024-03-17T12:59:38;2.90;;;2.70;;
6348;SDS011;3207;42.648;23.406;2024-03-17T13:02:24;2.90;;;2.70;;
6348;SDS011;3207;42.648;23.406;2024-03-17T13:07:48;3.38;;;3.05;;
6348;SDS011;3207;42.648;23.406;2024-03-17T13:10:16;2.67;;;2.47;;
6348;SDS011;3207;42.648;23.406;2024-03-17T13:12:45;2.92;;;2.72;;
6348;SDS011;3207;42.648;23.406;2024-03-17T13:15:13;3.25;;;2.90;;
6348;SDS011;3207;42.648;23.406;2024-03-17T13:17:41;3.05;;;2.83;;
6348;SDS011;3207;42.648;23.406;2024-03-17T13:20:10;3.30;;;3.10;;
6348;SDS011;3207;42.648;23.406;2024-03-17T13:22:41;3.30;;;2.80;;
6348;SDS011;3207;42.648;23.406;2024-03-17T13:25:12;2.67;;;2.47;;
6348;SDS011;3207;42.648;23.406;2024-03-17T13:27:41;2.80;;;2.60;;
6348;SDS011;3207;42.648;23.406;2024-03-17T13:30:08;3.33;;;3.13;;
6348;SDS011;3207;42.648;23.406;2024-03-17T13:32:36;2.85;;;2.65;;
6348;SDS011;3207;42.648;23.406;2024-03-17T13:35:03;3.50;;;3.20;;
6348;SDS011;3207;42.648;23.406;2024-03-17T13:37:31;3.10;;;2.90;;
6348;SDS011;3207;42.648;23.406;2024-03-17T13:39:59;3.08;;;2.70;;
6348;SDS011;3207;42.648;23.406;2024-03-17T13:42:30;2.40;;;2.28;;
6348;SDS011;3207;42.648;23.406;2024-03-17T13:44:57;3.40;;;3.10;;
6348;SDS011;3207;42.648;23.406;2024-03-17T13:47:24;3.00;;;2.75;;
6348;SDS011;3207;42.648;23.406;2024-03-17T13:49:51;2.80;;;2.60;;
6348;SDS011;3207;42.648;23.406;2024-03-17T13:52:18;3.10;;;2.90;;
6348;SDS011;3207;42.648;23.406;2024-03-17T13:54:45;2.65;;;2.45;;
6348;SDS011;3207;42.648;23.406;2024-03-17T13:57:14;3.17;;;2.75;;
6348;SDS011;3207;42.648;23.406;2024-03-17T13:59:42;2.95;;;2.75;;
6348;SDS011;3207;42.648;23.406;2024-03-17T14:02:09;2.80;;;2.60;;
6348;SDS011;3207;42.648;23.406;2024-03-17T14:04:39;3.25;;;3.03;;
6348;SDS011;3207;42.648;23.406;2024-03-17T14:07:06;3.15;;;2.80;;
6348;SDS011;3207;42.648;23.406;2024-03-17T14:09:33;6.70;;;3.10;;
6348;SDS011;3207;42.648;23.406;2024-03-17T14:12:00;2.85;;;2.65;;
6348;SDS011;3207;42.648;23.406;2024-03-17T14:14:28;2.97;;;2.60;;
6348;SDS011;3207;42.648;23.406;2024-03-17T14:16:55;2.70;;;2.50;;
6348;SDS011;3207;42.648;23.406;2024-03-17T14:19:22;2.85;;;2.65;;
6348;SDS011;3207;42.648;23.406;2024-03-17T14:21:51;3.00;;;2.80;;
6348;SDS011;3207;42.648;23.406;2024-03-17T14:24:18;2.67;;;2.47;;
6348;SDS011;3207;42.648;23.406;2024-03-17T14:26:44;3.38;;;2.60;;
6348;SDS011;3207;42.648;23.406;2024-03-17T14:29:11;3.05;;;2.85;;
6348;SDS011;3207;42.648;23.406;2024-03-17T14:31:40;2.78;;;2.58;;
6348;SDS011;3207;42.648;23.406;2024-03-17T14:34:10;3.22;;;3.00;;
6348;SDS011;3207;42.648;23.406;2024-03-17T14:36:37;2.70;;;2.50;;
6348;SDS011;3207;42.648;23.406;2024-03-17T14:39:04;2.97;;;2.78;;
6348;SDS011;3207;42.648;23.406;2024-03-17T14:41:32;2.50;;;2.30;;
6348;SDS011;3207;42.648;23.406;2024-03-17T14:43:59;2.80;;;2.60;;
6348;SDS011;3207;42.648;23.406;2024-03-17T14:46:25;3.85;;;2.72;;
6348;SDS011;3207;42.648;23.406;2024-03-17T14:48:57;2.78;;;2.58;;
6348;SDS011;3207;42.648;23.406;2024-03-17T14:51:24;2.60;;;2.40;;
6348;SDS011;3207;42.648;23.406;2024-03-17T14:53:51;2.97;;;2.75;;
6348;SDS011;3207;42.648;23.406;2024-03-17T14:56:27;3.08;;;2.30;;
6348;SDS011;3207;42.648;23.406;2024-03-17T14:58:54;2.92;;;2.70;;
6348;SDS011;3207;42.648;23.406;2024-03-17T15:01:21;3.00;;;2.80;;
6348;SDS011;3207;42.648;23.406;2024-03-17T15:03:48;2.85;;;2.53;;